Time;durP1;ratioP1;P1;durP2;ratioP2;P2;SDS_P1;SDS_P2;PMS_P1;PMS_P2;Temp;Humidity;BMP_temperature;BMP_pressure;BME280_temperature;BME280_humidity;BME280_pressure;Samples;Min_cycle;Max_cycle;Signal;HPM_P1;HPM_P2
2021/12/22 00:01:22;;;;;;;0.10;0.10;;;;;;;;;;5040037;28;20108;-71
2021/12/22 00:03:48;;;;;;;1.23;0.73;;;;;;;;;;5042457;28;20032;-71
2021/12/22 00:06:19;;;;;;;0.20;0.20;;;;;;;;;;5030070;28;20026;-71
2021/12/22 00:08:45;;;;;;;0.50;0.50;;;;;;;;;;5034855;28;20052;-71
2021/12/22 00:11:11;;;;;;;0.55;0.38;;;;;;;;;;5029972;28;20256;-71
2021/12/22 00:13:37;;;;;;;0.25;0.25;;;;;;;;;;5032319;28;20040;-71
2021/12/22 00:16:03;;;;;;;1.45;0.55;;;;;;;;;;5039322;28;20035;-71
2021/12/22 00:18:29;;;;;;;4.88;1.38;;;;;;;;;;5038826;28;20072;-71
2021/12/22 00:20:55;;;;;;;0.75;0.65;;;;;;;;;;5042773;28;20056;-71
2021/12/22 00:23:21;;;;;;;0.60;0.50;;;;;;;;;;5038025;28;20033;-71
2021/12/22 00:25:47;;;;;;;0.88;0.57;;;;;;;;;;5032799;28;20034;-71
2021/12/22 00:28:13;;;;;;;1.27;0.65;;;;;;;;;;5030688;28;20045;-71
2021/12/22 00:30:39;;;;;;;0.63;0.63;;;;;;;;;;5028658;28;20037;-71
2021/12/22 00:33:07;;;;;;;0.10;0.10;;;;;;;;;;5037701;28;20078;-70
2021/12/22 00:35:45;;;;;;;0.10;0.10;;;;;;;;;;5032763;28;20072;-71
2021/12/22 00:38:12;;;;;;;0.10;0.10;;;;;;;;;;5041771;28;20108;-71
2021/12/22 00:40:38;;;;;;;0.95;0.95;;;;;;;;;;5036065;28;20044;-71
2021/12/22 00:43:04;;;;;;;0.50;0.50;;;;;;;;;;5049882;28;20074;-71
2021/12/22 00:45:33;;;;;;;0.20;0.20;;;;;;;;;;5046743;28;20021;-71
2021/12/22 00:47:59;;;;;;;0.08;0.08;;;;;;;;;;5035326;28;20029;-71
2021/12/22 00:50:25;;;;;;;0.15;0.15;;;;;;;;;;5032686;28;20033;-71
2021/12/22 00:52:51;;;;;;;0.50;0.50;;;;;;;;;;5033995;28;20025;-71
2021/12/22 00:55:19;;;;;;;0.00;0.00;;;;;;;;;;5041523;28;20120;-71
2021/12/22 00:57:46;;;;;;;0.10;0.10;;;;;;;;;;5047938;28;20159;-71
2021/12/22 01:00:12;;;;;;;0.75;0.75;;;;;;;;;;5042622;28;20091;-71
2021/12/22 01:02:38;;;;;;;0.70;0.70;;;;;;;;;;5038917;28;20107;-70
2021/12/22 01:05:04;;;;;;;0.20;0.20;;;;;;;;;;5037213;28;20411;-69
2021/12/22 01:07:30;;;;;;;0.35;0.35;;;;;;;;;;5045563;28;20021;-70
2021/12/22 01:09:56;;;;;;;2.30;1.38;;;;;;;;;;5032628;28;20447;-69
2021/12/22 01:12:22;;;;;;;0.10;0.10;;;;;;;;;;5039072;28;20020;-69
2021/12/22 01:14:48;;;;;;;0.25;0.25;;;;;;;;;;5046244;28;20033;-69
2021/12/22 01:17:16;;;;;;;0.20;0.20;;;;;;;;;;5045077;28;20439;-69
2021/12/22 01:19:45;;;;;;;1.15;1.05;;;;;;;;;;5039533;28;20030;-69
2021/12/22 01:22:24;;;;;;;0.30;0.30;;;;;;;;;;5039510;28;20033;-70
2021/12/22 01:24:59;;;;;;;0.17;0.15;;;;;;;;;;5035844;28;20026;-70
2021/12/22 01:27:27;;;;;;;0.85;0.65;;;;;;;;;;5046447;28;20414;-70
2021/12/22 01:29:54;;;;;;;0.32;0.32;;;;;;;;;;5039656;28;20108;-70
2021/12/22 01:32:20;;;;;;;1.58;1.13;;;;;;;;;;5032102;28;20118;-71
2021/12/22 01:34:46;;;;;;;0.32;0.32;;;;;;;;;;5041612;28;20033;-69
2021/12/22 01:37:12;;;;;;;0.55;0.55;;;;;;;;;;5041617;28;20112;-70
2021/12/22 01:39:38;;;;;;;0.30;0.30;;;;;;;;;;5032039;28;20033;-70
2021/12/22 01:42:04;;;;;;;3.40;1.80;;;;;;;;;;5043196;28;20029;-72
2021/12/22 01:44:46;;;;;;;0.90;0.90;;;;;;;;;;5041396;28;20032;-70
2021/12/22 01:49:58;;;;;;;0.57;0.57;;;;;;;;;;5036443;28;20106;-72
2021/12/22 01:52:24;;;;;;;0.43;0.43;;;;;;;;;;5031359;28;20490;-70
2021/12/22 01:54:51;;;;;;;0.10;0.10;;;;;;;;;;5031601;28;20037;-70
2021/12/22 01:57:18;;;;;;;0.10;0.10;;;;;;;;;;5048009;28;20118;-70
2021/12/22 01:59:45;;;;;;;1.30;1.20;;;;;;;;;;5034991;28;21245;-69
2021/12/22 02:02:11;;;;;;;0.13;0.13;;;;;;;;;;5045146;28;20032;-70
2021/12/22 02:04:38;;;;;;;2.38;1.48;;;;;;;;;;5037299;28;20396;-70
2021/12/22 02:07:04;;;;;;;0.10;0.10;;;;;;;;;;5045542;28;20028;-70
2021/12/22 02:09:53;;;;;;;0.20;0.20;;;;;;;;;;5039727;28;20022;-70
2021/12/22 02:12:19;;;;;;;1.67;0.85;;;;;;;;;;5034737;28;20032;-69
2021/12/22 02:14:46;;;;;;;0.38;0.38;;;;;;;;;;5039287;28;20029;-70
2021/12/22 02:17:13;;;;;;;0.70;0.70;;;;;;;;;;5033094;28;20120;-69
2021/12/22 02:19:43;;;;;;;1.23;1.20;;;;;;;;;;5036174;28;20080;-69
2021/12/22 02:22:13;;;;;;;0.80;0.80;;;;;;;;;;5036860;28;20762;-71
2021/12/22 02:24:40;;;;;;;0.10;0.10;;;;;;;;;;5038495;28;20905;-69
2021/12/22 02:27:13;;;;;;;0.38;0.32;;;;;;;;;;5037319;28;20038;-70
2021/12/22 02:29:41;;;;;;;0.28;0.25;;;;;;;;;;5031408;28;20120;-70
2021/12/22 02:32:14;;;;;;;0.45;0.45;;;;;;;;;;5050545;28;20415;-70
2021/12/22 02:34:43;;;;;;;0.57;0.57;;;;;;;;;;5038886;28;20030;-70
2021/12/22 02:37:13;;;;;;;1.20;0.80;;;;;;;;;;5034643;28;20136;-70
2021/12/22 02:39:45;;;;;;;0.55;0.55;;;;;;;;;;5041359;28;20033;-72
2021/12/22 02:42:12;;;;;;;0.75;0.75;;;;;;;;;;5036543;28;20025;-70
2021/12/22 02:44:38;;;;;;;1.50;1.40;;;;;;;;;;5030307;28;20808;-70
2021/12/22 02:47:15;;;;;;;0.43;0.43;;;;;;;;;;5031113;28;20037;-70
2021/12/22 02:49:41;;;;;;;0.30;0.30;;;;;;;;;;5038810;28;20029;-69
2021/12/22 02:52:07;;;;;;;0.55;0.55;;;;;;;;;;5036155;28;20033;-70
2021/12/22 02:54:40;;;;;;;1.33;0.68;;;;;;;;;;5043095;28;20025;-69
2021/12/22 02:57:20;;;;;;;0.52;0.45;;;;;;;;;;5047364;28;20025;-72
2021/12/22 03:00:06;;;;;;;0.10;0.10;;;;;;;;;;5043946;28;20636;-70
2021/12/22 03:03:27;;;;;;;0.10;0.10;;;;;;;;;;5030129;28;20034;-70
2021/12/22 03:05:21;;;;;;;0.20;0.20;;;;;;;;;;5033178;28;20041;-69
2021/12/22 03:07:48;;;;;;;0.20;0.20;;;;;;;;;;5042688;28;20118;-70
2021/12/22 03:10:17;;;;;;;0.20;0.20;;;;;;;;;;5033103;28;20040;-71
2021/12/22 03:12:44;;;;;;;4.47;1.50;;;;;;;;;;5030789;28;20029;-71
2021/12/22 03:15:10;;;;;;;0.45;0.45;;;;;;;;;;5033968;28;20095;-70
2021/12/22 03:17:40;;;;;;;3.53;1.55;;;;;;;;;;5037264;28;20434;-70
2021/12/22 03:20:07;;;;;;;0.47;0.47;;;;;;;;;;5031540;28;20538;-71
2021/12/22 03:22:33;;;;;;;2.17;0.75;;;;;;;;;;5036879;28;20048;-70
2021/12/22 03:24:59;;;;;;;0.35;0.30;;;;;;;;;;5037942;28;20021;-70
2021/12/22 03:27:25;;;;;;;0.15;0.15;;;;;;;;;;5038140;28;20038;-70
2021/12/22 03:29:51;;;;;;;0.15;0.15;;;;;;;;;;5030697;28;20580;-70
2021/12/22 03:32:17;;;;;;;0.45;0.20;;;;;;;;;;5034964;28;20439;-71
2021/12/22 03:34:43;;;;;;;0.10;0.10;;;;;;;;;;5036807;28;20032;-70
2021/12/22 03:37:10;;;;;;;0.30;0.30;;;;;;;;;;5042727;28;20032;-70
2021/12/22 03:39:37;;;;;;;0.25;0.22;;;;;;;;;;5047541;28;20052;-71
2021/12/22 03:42:04;;;;;;;0.30;0.30;;;;;;;;;;5045807;28;20025;-70
2021/12/22 03:44:30;;;;;;;0.95;0.88;;;;;;;;;;5035009;28;20024;-70
2021/12/22 03:46:58;;;;;;;4.38;1.45;;;;;;;;;;5031447;28;20025;-70
2021/12/22 03:49:24;;;;;;;0.25;0.25;;;;;;;;;;5043962;28;20029;-70
2021/12/22 03:51:50;;;;;;;0.43;0.43;;;;;;;;;;5034761;28;20025;-70
2021/12/22 03:54:16;;;;;;;4.20;0.80;;;;;;;;;;5029707;28;20021;-70
2021/12/22 03:56:45;;;;;;;1.40;0.63;;;;;;;;;;5037455;28;20083;-70
2021/12/22 03:59:11;;;;;;;0.03;0.03;;;;;;;;;;5038421;28;20815;-71
2021/12/22 04:01:37;;;;;;;0.10;0.10;;;;;;;;;;5035267;28;20029;-70
2021/12/22 04:04:09;;;;;;;0.10;0.10;;;;;;;;;;5034506;28;20455;-70
2021/12/22 04:06:35;;;;;;;0.40;0.40;;;;;;;;;;5033677;28;20028;-70
2021/12/22 04:09:01;;;;;;;0.10;0.10;;;;;;;;;;5037847;28;20029;-71
2021/12/22 04:11:27;;;;;;;0.10;0.10;;;;;;;;;;5030632;28;20036;-70
2021/12/22 04:13:53;;;;;;;0.40;0.40;;;;;;;;;;5036746;28;20032;-71
2021/12/22 04:16:19;;;;;;;0.10;0.10;;;;;;;;;;5032660;28;20064;-71
2021/12/22 04:18:45;;;;;;;0.10;0.10;;;;;;;;;;5031718;28;20053;-71
2021/12/22 04:21:11;;;;;;;0.10;0.10;;;;;;;;;;5035421;28;20037;-70
2021/12/22 04:23:37;;;;;;;0.20;0.20;;;;;;;;;;5038064;28;20040;-70
2021/12/22 04:26:03;;;;;;;0.22;0.22;;;;;;;;;;5037587;28;20472;-70
2021/12/22 04:28:29;;;;;;;0.13;0.13;;;;;;;;;;5037644;28;20440;-71
2021/12/22 04:30:55;;;;;;;0.13;0.13;;;;;;;;;;5031149;28;20576;-71
2021/12/22 04:33:21;;;;;;;0.10;0.10;;;;;;;;;;5029079;28;20021;-71
2021/12/22 04:35:48;;;;;;;0.10;0.10;;;;;;;;;;5029350;28;20037;-71
2021/12/22 04:38:14;;;;;;;0.10;0.10;;;;;;;;;;5038090;28;20048;-71
2021/12/22 04:40:40;;;;;;;0.65;0.45;;;;;;;;;;5036610;28;20028;-71
2021/12/22 04:43:06;;;;;;;0.65;0.30;;;;;;;;;;5041465;28;20040;-70
2021/12/22 04:45:32;;;;;;;0.10;0.10;;;;;;;;;;5049423;28;20035;-71
2021/12/22 04:47:58;;;;;;;3.72;0.47;;;;;;;;;;5032903;28;20030;-70
2021/12/22 04:50:24;;;;;;;0.10;0.10;;;;;;;;;;5031961;28;20124;-71
2021/12/22 04:52:57;;;;;;;0.00;0.00;;;;;;;;;;5042085;28;20094;-71
2021/12/22 04:55:25;;;;;;;0.10;0.10;;;;;;;;;;5028795;28;20029;-71
2021/12/22 04:57:51;;;;;;;0.00;0.00;;;;;;;;;;5028848;28;20210;-71
2021/12/22 05:00:17;;;;;;;0.10;0.10;;;;;;;;;;5040624;28;20079;-71
2021/12/22 05:02:43;;;;;;;0.43;0.43;;;;;;;;;;5028449;28;20022;-71
2021/12/22 05:05:10;;;;;;;0.13;0.13;;;;;;;;;;5028824;28;20036;-71
2021/12/22 05:07:36;;;;;;;6.60;3.03;;;;;;;;;;5041455;28;20031;-71
2021/12/22 05:10:02;;;;;;;0.08;0.08;;;;;;;;;;5041289;28;20460;-71
2021/12/22 05:12:28;;;;;;;0.25;0.25;;;;;;;;;;5029021;28;20041;-70
2021/12/22 05:14:54;;;;;;;0.15;0.15;;;;;;;;;;5048873;28;20050;-71
2021/12/22 05:18:20;;;;;;;0.43;0.43;;;;;;;;;;5039576;28;20112;-71
2021/12/22 05:20:09;;;;;;;0.10;0.10;;;;;;;;;;5030543;28;20029;-70
2021/12/22 05:22:35;;;;;;;0.20;0.20;;;;;;;;;;5036335;28;20037;-71
2021/12/22 05:25:02;;;;;;;0.40;0.40;;;;;;;;;;5036353;28;20451;-70
2021/12/22 05:27:29;;;;;;;0.13;0.13;;;;;;;;;;5043632;28;20095;-71
2021/12/22 05:29:55;;;;;;;0.15;0.15;;;;;;;;;;5039886;28;20094;-71
2021/12/22 05:32:24;;;;;;;0.10;0.10;;;;;;;;;;5035512;28;20029;-70
2021/12/22 05:34:50;;;;;;;0.20;0.20;;;;;;;;;;5040471;28;20063;-70
2021/12/22 05:37:16;;;;;;;0.10;0.10;;;;;;;;;;5031712;28;20083;-70
2021/12/22 05:39:42;;;;;;;0.10;0.10;;;;;;;;;;5031931;28;20037;-70
2021/12/22 05:42:08;;;;;;;3.83;1.45;;;;;;;;;;5036477;28;20112;-70
2021/12/22 05:44:34;;;;;;;0.60;0.60;;;;;;;;;;5043771;28;20033;-70
2021/12/22 05:47:00;;;;;;;0.10;0.10;;;;;;;;;;5033946;28;20357;-70
2021/12/22 05:49:26;;;;;;;0.20;0.20;;;;;;;;;;5041159;28;20032;-70
2021/12/22 05:51:52;;;;;;;0.20;0.20;;;;;;;;;;5040911;28;20042;-70
2021/12/22 05:54:17;;;;;;;0.13;0.13;;;;;;;;;;5034575;28;20063;-70
2021/12/22 05:56:43;;;;;;;0.00;0.00;;;;;;;;;;5042429;28;20032;-70
2021/12/22 05:59:09;;;;;;;0.15;0.15;;;;;;;;;;5038978;28;20029;-70
2021/12/22 06:01:35;;;;;;;0.22;0.22;;;;;;;;;;5041811;28;20020;-71
2021/12/22 06:04:03;;;;;;;0.10;0.10;;;;;;;;;;5037567;28;20056;-70
2021/12/22 06:06:29;;;;;;;0.45;0.45;;;;;;;;;;5039570;28;20039;-70
2021/12/22 06:08:55;;;;;;;0.47;0.47;;;;;;;;;;5038789;28;20080;-70
2021/12/22 06:11:21;;;;;;;0.20;0.20;;;;;;;;;;5031522;28;20450;-70
2021/12/22 06:13:47;;;;;;;0.98;0.95;;;;;;;;;;5039290;28;20056;-70
2021/12/22 06:16:13;;;;;;;0.38;0.38;;;;;;;;;;5030849;28;20029;-70
2021/12/22 06:18:43;;;;;;;0.57;0.57;;;;;;;;;;5038833;28;20033;-70
2021/12/22 06:21:10;;;;;;;0.30;0.30;;;;;;;;;;5032401;28;20041;-70
2021/12/22 06:23:36;;;;;;;0.63;0.63;;;;;;;;;;5032911;28;20488;-70
2021/12/22 06:26:02;;;;;;;0.00;0.00;;;;;;;;;;5031132;28;20032;-70
2021/12/22 06:28:28;;;;;;;0.10;0.10;;;;;;;;;;5032550;28;20159;-70
2021/12/22 06:30:54;;;;;;;0.13;0.13;;;;;;;;;;5032250;28;20068;-70
2021/12/22 06:33:20;;;;;;;0.00;0.00;;;;;;;;;;5030921;28;20045;-70
2021/12/22 06:35:47;;;;;;;0.10;0.10;;;;;;;;;;5036688;28;20468;-71
2021/12/22 06:38:13;;;;;;;0.73;0.30;;;;;;;;;;5043022;28;20021;-71
2021/12/22 06:40:39;;;;;;;0.50;0.50;;;;;;;;;;5036787;28;20407;-73
2021/12/22 06:43:05;;;;;;;0.10;0.10;;;;;;;;;;5041171;28;20029;-73
2021/12/22 06:45:31;;;;;;;0.73;0.73;;;;;;;;;;5043063;28;20072;-73
2021/12/22 06:47:57;;;;;;;0.30;0.30;;;;;;;;;;5039925;28;20092;-71
2021/12/22 06:50:23;;;;;;;0.20;0.20;;;;;;;;;;5039064;28;20043;-71
2021/12/22 06:52:49;;;;;;;0.30;0.30;;;;;;;;;;5036903;28;20033;-71
2021/12/22 06:55:15;;;;;;;0.47;0.40;;;;;;;;;;5036566;28;20067;-71
2021/12/22 06:57:41;;;;;;;1.15;0.30;;;;;;;;;;5034423;28;20082;-71
2021/12/22 07:00:08;;;;;;;0.32;0.32;;;;;;;;;;5038295;28;20507;-70
2021/12/22 07:02:37;;;;;;;1.35;0.70;;;;;;;;;;5036890;28;20030;-71
2021/12/22 07:05:04;;;;;;;0.13;0.13;;;;;;;;;;5042461;28;20037;-70
2021/12/22 07:07:30;;;;;;;2.30;1.80;;;;;;;;;;5031084;28;20021;-72
2021/12/22 07:09:56;;;;;;;0.50;0.50;;;;;;;;;;5034159;28;20496;-73
2021/12/22 07:12:22;;;;;;;2.40;1.38;;;;;;;;;;5034216;28;20044;-72
2021/12/22 07:14:48;;;;;;;0.22;0.22;;;;;;;;;;5040327;28;20116;-73
2021/12/22 07:17:14;;;;;;;0.57;0.57;;;;;;;;;;5038526;28;20379;-72
2021/12/22 07:19:40;;;;;;;0.52;0.52;;;;;;;;;;5035720;28;20050;-71
2021/12/22 07:22:06;;;;;;;0.10;0.10;;;;;;;;;;5041845;28;20037;-71
2021/12/22 07:24:32;;;;;;;5.60;3.40;;;;;;;;;;5030410;28;20048;-71
2021/12/22 07:26:58;;;;;;;0.20;0.20;;;;;;;;;;5036908;28;20057;-72
2021/12/22 07:29:24;;;;;;;0.25;0.25;;;;;;;;;;5035544;28;20400;-72
2021/12/22 07:31:50;;;;;;;0.10;0.10;;;;;;;;;;5036257;28;20036;-73
2021/12/22 07:34:57;;;;;;;0.30;0.30;;;;;;;;;;5039375;28;20373;-71
2021/12/22 07:37:32;;;;;;;0.20;0.20;;;;;;;;;;5026308;28;20029;-70
2021/12/22 07:39:58;;;;;;;0.15;0.15;;;;;;;;;;5034769;28;20036;-70
2021/12/22 07:42:24;;;;;;;0.32;0.32;;;;;;;;;;5042828;28;20029;-70
2021/12/22 07:44:50;;;;;;;0.77;0.77;;;;;;;;;;5039487;28;20029;-72
2021/12/22 07:47:16;;;;;;;2.83;1.02;;;;;;;;;;5036158;28;20030;-72
2021/12/22 07:49:42;;;;;;;1.65;1.05;;;;;;;;;;5035731;28;20056;-72
2021/12/22 07:52:08;;;;;;;0.85;0.38;;;;;;;;;;5042664;28;20025;-76
2021/12/22 07:54:34;;;;;;;0.52;0.52;;;;;;;;;;5030915;28;20488;-72
2021/12/22 07:57:00;;;;;;;0.10;0.10;;;;;;;;;;5037567;28;20033;-71
2021/12/22 07:59:26;;;;;;;0.57;0.52;;;;;;;;;;5035720;28;20156;-72
2021/12/22 08:01:52;;;;;;;0.32;0.32;;;;;;;;;;5034925;28;20647;-71
2021/12/22 08:04:18;;;;;;;0.75;0.73;;;;;;;;;;5032155;28;20030;-72
2021/12/22 08:06:44;;;;;;;0.25;0.13;;;;;;;;;;5029709;28;20017;-71
2021/12/22 08:09:10;;;;;;;0.65;0.65;;;;;;;;;;5041545;28;20442;-71
2021/12/22 08:11:36;;;;;;;0.47;0.47;;;;;;;;;;5028010;28;20128;-72
2021/12/22 08:14:05;;;;;;;0.45;0.45;;;;;;;;;;5035860;28;20392;-71
2021/12/22 08:16:30;;;;;;;0.55;0.55;;;;;;;;;;5031542;28;20037;-72
2021/12/22 08:18:56;;;;;;;0.85;0.80;;;;;;;;;;5028789;28;20391;-72
2021/12/22 08:21:22;;;;;;;0.20;0.20;;;;;;;;;;5033429;28;20487;-72
2021/12/22 08:23:48;;;;;;;1.23;1.13;;;;;;;;;;5028572;28;20112;-71
2021/12/22 08:26:14;;;;;;;0.20;0.20;;;;;;;;;;5031226;28;20025;-71
2021/12/22 08:28:40;;;;;;;0.38;0.20;;;;;;;;;;5042241;28;20035;-71
2021/12/22 08:31:06;;;;;;;1.35;0.52;;;;;;;;;;5029933;28;20484;-72
2021/12/22 08:33:38;;;;;;;0.45;0.45;;;;;;;;;;5046510;28;20029;-71
2021/12/22 08:38:51;;;;;;;0.30;0.30;;;;;;;;;;5045060;28;20064;-73
2021/12/22 08:41:21;;;;;;;0.10;0.10;;;;;;;;;;5028498;28;20022;-71
2021/12/22 08:43:47;;;;;;;2.30;0.60;;;;;;;;;;5032044;28;20064;-72
2021/12/22 08:46:13;;;;;;;0.30;0.30;;;;;;;;;;5034748;28;20064;-72
2021/12/22 08:48:39;;;;;;;0.10;0.10;;;;;;;;;;5047652;28;20033;-71
2021/12/22 08:51:05;;;;;;;0.10;0.10;;;;;;;;;;5048108;28;20063;-72
2021/12/22 08:53:31;;;;;;;0.30;0.30;;;;;;;;;;5061167;28;20029;-73
2021/12/22 08:55:57;;;;;;;0.82;0.82;;;;;;;;;;5029893;28;20037;-71
2021/12/22 08:58:23;;;;;;;0.45;0.45;;;;;;;;;;5036781;28;20432;-72
2021/12/22 09:00:49;;;;;;;0.90;0.90;;;;;;;;;;5045216;28;20057;-72
2021/12/22 09:03:15;;;;;;;0.32;0.32;;;;;;;;;;5032371;28;20029;-71
2021/12/22 09:05:41;;;;;;;0.20;0.20;;;;;;;;;;5050950;28;20445;-72
2021/12/22 09:08:06;;;;;;;1.00;1.00;;;;;;;;;;5032431;28;20029;-72
2021/12/22 09:10:32;;;;;;;1.05;0.77;;;;;;;;;;5039311;28;20029;-72
2021/12/22 09:12:58;;;;;;;0.10;0.10;;;;;;;;;;5034123;28;20041;-72
2021/12/22 09:15:24;;;;;;;2.20;0.90;;;;;;;;;;5051292;28;20021;-72
2021/12/22 09:17:50;;;;;;;0.10;0.10;;;;;;;;;;5041848;28;20511;-72
2021/12/22 09:20:16;;;;;;;0.20;0.20;;;;;;;;;;5032933;28;20113;-72
2021/12/22 09:22:42;;;;;;;0.95;0.95;;;;;;;;;;5041637;28;20055;-73
2021/12/22 09:25:09;;;;;;;28.40;1.75;;;;;;;;;;5031787;28;20033;-73
2021/12/22 09:27:35;;;;;;;1.15;1.05;;;;;;;;;;5032779;28;20049;-73
2021/12/22 09:30:04;;;;;;;0.75;0.75;;;;;;;;;;5032644;28;20060;-72
2021/12/22 09:32:30;;;;;;;0.20;0.20;;;;;;;;;;5035984;28;20025;-72
2021/12/22 09:34:56;;;;;;;0.47;0.43;;;;;;;;;;5033224;28;20064;-72
2021/12/22 09:37:22;;;;;;;2.60;1.00;;;;;;;;;;5031853;28;20032;-72
2021/12/22 09:39:49;;;;;;;0.40;0.40;;;;;;;;;;5039258;28;20021;-72
2021/12/22 09:42:15;;;;;;;0.63;0.63;;;;;;;;;;5036082;28;20082;-72
2021/12/22 09:44:45;;;;;;;0.20;0.20;;;;;;;;;;5031887;28;20042;-72
2021/12/22 09:47:11;;;;;;;0.43;0.43;;;;;;;;;;5031729;28;20191;-72
2021/12/22 09:52:23;;;;;;;0.38;0.38;;;;;;;;;;5032990;28;20244;-73
2021/12/22 09:54:51;;;;;;;7.90;1.80;;;;;;;;;;5045802;28;20063;-73
2021/12/22 09:57:18;;;;;;;0.65;0.65;;;;;;;;;;5042958;28;20116;-73
2021/12/22 09:59:51;;;;;;;1.40;1.30;;;;;;;;;;5030980;28;20030;-73
2021/12/22 10:02:18;;;;;;;0.32;0.32;;;;;;;;;;5036175;28;20464;-73
2021/12/22 10:04:44;;;;;;;0.57;0.57;;;;;;;;;;5051986;28;20116;-73
2021/12/22 10:07:16;;;;;;;0.28;0.28;;;;;;;;;;5034874;28;20121;-73
2021/12/22 10:09:46;;;;;;;0.70;0.70;;;;;;;;;;5042086;28;20087;-73
2021/12/22 10:12:13;;;;;;;0.30;0.30;;;;;;;;;;5049754;28;20017;-73
2021/12/22 10:14:47;;;;;;;0.25;0.25;;;;;;;;;;5045895;28;20479;-73
2021/12/22 10:17:25;;;;;;;0.52;0.52;;;;;;;;;;5038487;28;20032;-73
2021/12/22 10:19:53;;;;;;;1.20;1.08;;;;;;;;;;5033991;28;20029;-73
2021/12/22 10:22:19;;;;;;;0.80;0.65;;;;;;;;;;5040408;28;20036;-73
2021/12/22 10:24:46;;;;;;;0.68;0.68;;;;;;;;;;5041742;28;20086;-73
2021/12/22 10:27:22;;;;;;;2.05;1.17;;;;;;;;;;5050511;28;20149;-72
2021/12/22 10:29:48;;;;;;;0.77;0.57;;;;;;;;;;5050361;28;20025;-72
2021/12/22 10:32:15;;;;;;;0.40;0.40;;;;;;;;;;5038489;28;20082;-72
2021/12/22 10:34:56;;;;;;;0.82;0.82;;;;;;;;;;5038934;28;20025;-69
2021/12/22 10:37:32;;;;;;;0.50;0.50;;;;;;;;;;5035881;28;20421;-71
2021/12/22 10:39:58;;;;;;;0.25;0.25;;;;;;;;;;5031822;28;20080;-71
2021/12/22 10:42:39;;;;;;;1.30;1.20;;;;;;;;;;5049519;28;20041;-71
2021/12/22 10:45:11;;;;;;;0.65;0.65;;;;;;;;;;5040251;28;20017;-70
2021/12/22 10:49:14;;;;;;;0.73;0.28;;;;;;;;;;5033892;28;20033;-70
2021/12/22 10:50:31;;;;;;;0.10;0.10;;;;;;;;;;5044045;28;20045;-70
2021/12/22 10:52:58;;;;;;;1.33;0.65;;;;;;;;;;5036844;28;20485;-75
2021/12/22 10:55:23;;;;;;;0.10;0.10;;;;;;;;;;5035392;28;20087;-72
2021/12/22 10:57:49;;;;;;;2.05;1.83;;;;;;;;;;5033980;28;20029;-71
2021/12/22 11:00:15;;;;;;;0.38;0.38;;;;;;;;;;5043369;28;20036;-70
2021/12/22 11:02:48;;;;;;;1.88;1.70;;;;;;;;;;5033829;28;20091;-71
2021/12/22 11:05:28;;;;;;;1.90;1.52;;;;;;;;;;5032253;28;20035;-70
2021/12/22 11:07:54;;;;;;;1.17;1.08;;;;;;;;;;5036259;28;20045;-70
2021/12/22 11:10:24;;;;;;;0.40;0.40;;;;;;;;;;5031972;28;20147;-70
2021/12/22 11:13:00;;;;;;;0.45;0.45;;;;;;;;;;5038137;28;20060;-72
2021/12/22 11:15:40;;;;;;;0.20;0.20;;;;;;;;;;5041260;28;20087;-71
2021/12/22 11:18:08;;;;;;;13.10;1.70;;;;;;;;;;5032987;28;20099;-70
2021/12/22 11:20:34;;;;;;;0.52;0.52;;;;;;;;;;5032136;28;20040;-71
2021/12/22 11:23:04;;;;;;;0.50;0.50;;;;;;;;;;5042124;28;20027;-70
2021/12/22 11:25:30;;;;;;;0.52;0.52;;;;;;;;;;5038545;28;20025;-71
2021/12/22 11:27:56;;;;;;;0.95;0.95;;;;;;;;;;5031255;28;20071;-70
2021/12/22 11:30:23;;;;;;;0.70;0.38;;;;;;;;;;5037086;28;20070;-71
2021/12/22 11:32:49;;;;;;;0.38;0.38;;;;;;;;;;5032111;28;20021;-71
2021/12/22 11:35:16;;;;;;;2.95;2.03;;;;;;;;;;5035426;28;20033;-70
2021/12/22 11:37:42;;;;;;;0.63;0.63;;;;;;;;;;5030887;28;20078;-70
2021/12/22 11:40:09;;;;;;;1.00;0.50;;;;;;;;;;5035943;28;20037;-71
2021/12/22 11:42:38;;;;;;;2.63;2.40;;;;;;;;;;5037816;28;20029;-70
2021/12/22 11:45:13;;;;;;;0.47;0.47;;;;;;;;;;5039012;28;20720;-71
2021/12/22 11:47:43;;;;;;;1.27;1.02;;;;;;;;;;5037458;28;20484;-71
2021/12/22 11:50:17;;;;;;;1.70;0.95;;;;;;;;;;5035610;28;20017;-72
2021/12/22 11:52:55;;;;;;;0.57;0.57;;;;;;;;;;5029774;28;20090;-71
2021/12/22 11:55:20;;;;;;;0.70;0.70;;;;;;;;;;5031515;28;20026;-71
2021/12/22 11:57:51;;;;;;;0.35;0.35;;;;;;;;;;5033419;28;20033;-70
2021/12/22 12:00:23;;;;;;;0.52;0.52;;;;;;;;;;5032929;28;20033;-72
2021/12/22 12:02:49;;;;;;;0.63;0.57;;;;;;;;;;5032307;28;20442;-71
2021/12/22 12:05:31;;;;;;;2.03;1.85;;;;;;;;;;5029636;28;20123;-71
2021/12/22 12:07:59;;;;;;;1.05;0.98;;;;;;;;;;5034070;28;20033;-70
2021/12/22 12:10:36;;;;;;;1.17;1.08;;;;;;;;;;5042620;28;20036;-73
2021/12/22 12:13:07;;;;;;;0.55;0.55;;;;;;;;;;5031018;28;20053;-71
2021/12/22 12:15:55;;;;;;;0.40;0.40;;;;;;;;;;5033096;28;20033;-70
2021/12/22 12:21:48;;;;;;;0.75;0.75;;;;;;;;;;5037628;28;20078;-74
2021/12/22 12:24:32;;;;;;;1.25;1.15;;;;;;;;;;5028842;28;20056;-70
2021/12/22 12:26:59;;;;;;;0.40;0.40;;;;;;;;;;5030987;28;20050;-71
2021/12/22 12:29:44;;;;;;;0.85;0.65;;;;;;;;;;5028305;28;20025;-71
2021/12/22 12:32:10;;;;;;;2.58;1.40;;;;;;;;;;5046119;28;20068;-71
2021/12/22 12:34:39;;;;;;;0.57;0.57;;;;;;;;;;5048002;28;20464;-71
2021/12/22 12:37:06;;;;;;;0.40;0.40;;;;;;;;;;5038875;28;20097;-71
2021/12/22 12:39:50;;;;;;;0.65;0.65;;;;;;;;;;5036322;28;20025;-71
2021/12/22 12:42:16;;;;;;;0.68;0.68;;;;;;;;;;5048020;28;20033;-71
2021/12/22 12:44:42;;;;;;;2.42;1.90;;;;;;;;;;5046762;28;20025;-71
2021/12/22 12:47:21;;;;;;;1.38;1.08;;;;;;;;;;5045587;28;20033;-71
2021/12/22 12:49:47;;;;;;;2.03;1.83;;;;;;;;;;5047883;28;20025;-71
2021/12/22 12:52:19;;;;;;;0.22;0.22;;;;;;;;;;5041417;28;20021;-70
2021/12/22 12:54:46;;;;;;;0.68;0.68;;;;;;;;;;5046404;28;20029;-71
2021/12/22 12:57:12;;;;;;;0.88;0.77;;;;;;;;;;5039197;28;20506;-71
2021/12/22 12:59:38;;;;;;;0.60;0.60;;;;;;;;;;5036059;28;20025;-71
2021/12/22 13:02:05;;;;;;;0.68;0.68;;;;;;;;;;5045578;28;20479;-71
2021/12/22 13:04:32;;;;;;;0.35;0.35;;;;;;;;;;5048090;28;20054;-72
2021/12/22 13:06:58;;;;;;;1.25;0.85;;;;;;;;;;5040892;28;20025;-72
2021/12/22 13:09:24;;;;;;;0.88;0.80;;;;;;;;;;5029504;28;20474;-72
2021/12/22 13:11:54;;;;;;;3.00;1.40;;;;;;;;;;5046135;28;20032;-71
2021/12/22 13:17:15;;;;;;;0.88;0.88;;;;;;;;;;5028955;28;20126;-71
2021/12/22 13:19:47;;;;;;;0.88;0.65;;;;;;;;;;5036192;28;20061;-72
2021/12/22 13:22:19;;;;;;;2.42;0.95;;;;;;;;;;5041539;28;20048;-72
2021/12/22 13:24:46;;;;;;;0.40;0.40;;;;;;;;;;5047617;28;20033;-72
2021/12/22 13:27:12;;;;;;;2.95;0.80;;;;;;;;;;5035971;28;20072;-75
2021/12/22 13:29:39;;;;;;;3.83;0.55;;;;;;;;;;5028884;28;20036;-74
2021/12/22 13:32:11;;;;;;;0.40;0.40;;;;;;;;;;5035439;28;20032;-73
2021/12/22 13:34:46;;;;;;;4.72;1.60;;;;;;;;;;5042493;28;20029;-75
2021/12/22 13:37:15;;;;;;;3.85;0.52;;;;;;;;;;5039021;28;20033;-80
2021/12/22 13:39:45;;;;;;;0.45;0.45;;;;;;;;;;5031775;28;20029;-76
2021/12/22 13:42:17;;;;;;;0.47;0.47;;;;;;;;;;5027614;28;20033;-72
2021/12/22 13:44:43;;;;;;;0.30;0.30;;;;;;;;;;5047466;28;20071;-71
2021/12/22 13:47:09;;;;;;;0.20;0.20;;;;;;;;;;5045979;28;20021;-71
2021/12/22 13:49:35;;;;;;;0.10;0.10;;;;;;;;;;5035640;28;20435;-72
2021/12/22 13:52:02;;;;;;;1.00;1.00;;;;;;;;;;5030999;28;20022;-75
2021/12/22 13:54:29;;;;;;;0.20;0.20;;;;;;;;;;5039208;28;20028;-73
2021/12/22 13:56:59;;;;;;;5.63;2.67;;;;;;;;;;5050902;28;20116;-73
2021/12/22 13:59:28;;;;;;;0.30;0.30;;;;;;;;;;5034797;28;20373;-76
2021/12/22 14:01:55;;;;;;;1.92;1.05;;;;;;;;;;5030929;28;20038;-72
2021/12/22 14:04:31;;;;;;;0.32;0.32;;;;;;;;;;5038983;28;20025;-73
2021/12/22 14:07:20;;;;;;;0.50;0.50;;;;;;;;;;5035997;28;20392;-73
2021/12/22 14:09:50;;;;;;;1.40;1.30;;;;;;;;;;5030996;28;20037;-72
2021/12/22 14:12:23;;;;;;;7.93;1.35;;;;;;;;;;5030615;28;20249;-73
2021/12/22 14:14:50;;;;;;;1.38;1.27;;;;;;;;;;5044036;28;20373;-72
2021/12/22 14:17:29;;;;;;;2.05;1.95;;;;;;;;;;5032769;28;20033;-72
2021/12/22 14:19:57;;;;;;;0.57;0.57;;;;;;;;;;5030048;28;20033;-72
2021/12/22 14:22:27;;;;;;;1.17;1.10;;;;;;;;;;5035300;28;20075;-72
2021/12/22 14:24:55;;;;;;;1.45;1.35;;;;;;;;;;5030982;28;20044;-72
2021/12/22 14:27:35;;;;;;;0.40;0.22;;;;;;;;;;5032785;28;20061;-71
2021/12/22 14:30:02;;;;;;;1.45;0.65;;;;;;;;;;5030630;28;20029;-71
2021/12/22 14:32:35;;;;;;;0.43;0.43;;;;;;;;;;5033855;28;20031;-72
2021/12/22 14:35:07;;;;;;;0.77;0.77;;;;;;;;;;5030277;28;20400;-72
2021/12/22 14:37:33;;;;;;;1.17;0.82;;;;;;;;;;5049267;28;20439;-71
2021/12/22 14:39:59;;;;;;;1.27;1.17;;;;;;;;;;5049995;28;20110;-72
2021/12/22 14:42:27;;;;;;;1.30;0.52;;;;;;;;;;5040723;28;20382;-71
2021/12/22 14:45:13;;;;;;;1.08;1.00;;;;;;;;;;5030134;28;20034;-73
2021/12/22 14:47:39;;;;;;;0.82;0.82;;;;;;;;;;5037467;28;20040;-72
2021/12/22 14:50:11;;;;;;;6.25;1.23;;;;;;;;;;5030829;28;20431;-71
2021/12/22 14:52:37;;;;;;;0.30;0.30;;;;;;;;;;5028166;28;20373;-73
2021/12/22 14:55:03;;;;;;;0.45;0.45;;;;;;;;;;5029708;28;20076;-71
2021/12/22 14:57:30;;;;;;;3.20;0.75;;;;;;;;;;5036010;28;20033;-73
2021/12/22 14:59:55;;;;;;;0.68;0.68;;;;;;;;;;5029276;28;20028;-72
2021/12/22 15:02:21;;;;;;;0.40;0.40;;;;;;;;;;5029249;28;20017;-72
2021/12/22 15:04:47;;;;;;;1.02;0.55;;;;;;;;;;5029992;28;20557;-72